sensor_id;sensor_type;location;lat;lon;timestamp;temperature;humidity
68098;DHT22;54886;47.036;15.466;2022-12-13T00:00:40;-4.34;71.27
68098;DHT22;54886;47.036;15.466;2022-12-13T00:03:06;-4.37;71.25
68098;DHT22;54886;47.036;15.466;2022-12-13T00:05:32;-4.43;71.24
68098;DHT22;54886;47.036;15.466;2022-12-13T00:07:58;-4.41;71.46
68098;DHT22;54886;47.036;15.466;2022-12-13T00:10:24;-4.41;71.36
68098;DHT22;54886;47.036;15.466;2022-12-13T00:12:49;-4.46;71.24
68098;DHT22;54886;47.036;15.466;2022-12-13T00:15:15;-4.51;71.09
68098;DHT22;54886;47.036;15.466;2022-12-13T00:17:40;-4.51;71.36
68098;DHT22;54886;47.036;15.466;2022-12-13T00:20:06;-4.51;71.67
68098;DHT22;54886;47.036;15.466;2022-12-13T00:22:32;-4.49;71.88
68098;DHT22;54886;47.036;15.466;2022-12-13T00:24:57;-4.53;72.02
68098;DHT22;54886;47.036;15.466;2022-12-13T00:27:22;-4.53;71.69
68098;DHT22;54886;47.036;15.466;2022-12-13T00:29:48;-4.56;71.79
68098;DHT22;54886;47.036;15.466;2022-12-13T00:32:13;-4.58;71.57
68098;DHT22;54886;47.036;15.466;2022-12-13T00:34:39;-4.64;71.74
68098;DHT22;54886;47.036;15.466;2022-12-13T00:37:05;-4.68;72.03
68098;DHT22;54886;47.036;15.466;2022-12-13T00:39:30;-4.69;72.51
68098;DHT22;54886;47.036;15.466;2022-12-13T00:41:56;-4.69;72.18
68098;DHT22;54886;47.036;15.466;2022-12-13T00:44:21;-4.72;71.75
68098;DHT22;54886;47.036;15.466;2022-12-13T00:46:47;-4.77;72.15
68098;DHT22;54886;47.036;15.466;2022-12-13T00:49:15;-4.77;71.73
68098;DHT22;54886;47.036;15.466;2022-12-13T00:51:41;-4.81;72.49
68098;DHT22;54886;47.036;15.466;2022-12-13T00:54:06;-4.82;72.36
68098;DHT22;54886;47.036;15.466;2022-12-13T00:56:32;-4.84;72.51
68098;DHT22;54886;47.036;15.466;2022-12-13T00:58:58;-4.82;72.52
68098;DHT22;54886;47.036;15.466;2022-12-13T01:01:30;-4.84;72.45
68098;DHT22;54886;47.036;15.466;2022-12-13T01:03:58;-4.89;72.65
68098;DHT22;54886;47.036;15.466;2022-12-13T01:06:30;-4.92;72.84
68098;DHT22;54886;47.036;15.466;2022-12-13T01:08:58;-4.91;73.07
68098;DHT22;54886;47.036;15.466;2022-12-13T01:11:23;-4.95;72.74
68098;DHT22;54886;47.036;15.466;2022-12-13T01:13:49;-4.96;73.05
68098;DHT22;54886;47.036;15.466;2022-12-13T01:16:15;-4.96;72.82
68098;DHT22;54886;47.036;15.466;2022-12-13T01:18:40;-4.99;72.70
68098;DHT22;54886;47.036;15.466;2022-12-13T01:21:11;-5.02;72.88
68098;DHT22;54886;47.036;15.466;2022-12-13T01:23:37;-5.00;72.54
68098;DHT22;54886;47.036;15.466;2022-12-13T01:26:04;-5.06;72.50
68098;DHT22;54886;47.036;15.466;2022-12-13T01:28:30;-5.03;72.81
68098;DHT22;54886;47.036;15.466;2022-12-13T01:30:57;-5.10;72.86
68098;DHT22;54886;47.036;15.466;2022-12-13T01:33:23;-5.09;72.79
68098;DHT22;54886;47.036;15.466;2022-12-13T01:35:49;-5.12;72.88
68098;DHT22;54886;47.036;15.466;2022-12-13T01:38:14;-5.10;72.74
68098;DHT22;54886;47.036;15.466;2022-12-13T01:40:50;-5.15;72.70
68098;DHT22;54886;47.036;15.466;2022-12-13T01:46:12;-5.16;73.03
68098;DHT22;54886;47.036;15.466;2022-12-13T01:48:43;-5.16;73.35
68098;DHT22;54886;47.036;15.466;2022-12-13T01:51:11;-5.22;73.27
68098;DHT22;54886;47.036;15.466;2022-12-13T01:53:39;-5.24;73.16
68098;DHT22;54886;47.036;15.466;2022-12-13T01:56:14;-5.24;73.06
68098;DHT22;54886;47.036;15.466;2022-12-13T01:58:42;-5.27;73.05
68098;DHT22;54886;47.036;15.466;2022-12-13T02:01:09;-5.30;73.08
68098;DHT22;54886;47.036;15.466;2022-12-13T02:03:34;-5.31;73.24
68098;DHT22;54886;47.036;15.466;2022-12-13T02:06:05;-5.31;73.11
68098;DHT22;54886;47.036;15.466;2022-12-13T02:08:32;-5.35;73.47
68098;DHT22;54886;47.036;15.466;2022-12-13T02:10:59;-5.37;73.93
68098;DHT22;54886;47.036;15.466;2022-12-13T02:13:25;-5.37;73.68
68098;DHT22;54886;47.036;15.466;2022-12-13T02:18:42;-5.40;73.93
68098;DHT22;54886;47.036;15.466;2022-12-13T02:29:37;-5.43;73.68
68098;DHT22;54886;47.036;15.466;2022-12-13T02:34:50;-5.47;73.79
68098;DHT22;54886;47.036;15.466;2022-12-13T02:40:08;-5.54;73.75
68098;DHT22;54886;47.036;15.466;2022-12-13T02:42:49;-5.54;73.77
68098;DHT22;54886;47.036;15.466;2022-12-13T02:45:30;-5.55;73.68
68098;DHT22;54886;47.036;15.466;2022-12-13T02:47:59;-5.58;73.90
68098;DHT22;54886;47.036;15.466;2022-12-13T02:50:25;-5.58;73.86
68098;DHT22;54886;47.036;15.466;2022-12-13T02:52:52;-5.60;73.78
68098;DHT22;54886;47.036;15.466;2022-12-13T02:55:18;-5.60;74.19
68098;DHT22;54886;47.036;15.466;2022-12-13T02:57:45;-5.60;74.15
68098;DHT22;54886;47.036;15.466;2022-12-13T03:00:20;-5.61;74.36
68098;DHT22;54886;47.036;15.466;2022-12-13T03:03:12;-5.61;74.48
68098;DHT22;54886;47.036;15.466;2022-12-13T03:05:53;-5.65;74.19
68098;DHT22;54886;47.036;15.466;2022-12-13T03:12:23;-5.71;74.23
68098;DHT22;54886;47.036;15.466;2022-12-13T03:14:47;-5.77;74.33
68098;DHT22;54886;47.036;15.466;2022-12-13T03:17:16;-5.75;74.25
68098;DHT22;54886;47.036;15.466;2022-12-13T03:19:42;-5.77;74.42
68098;DHT22;54886;47.036;15.466;2022-12-13T03:22:08;-5.77;74.39
68098;DHT22;54886;47.036;15.466;2022-12-13T03:24:33;-5.81;74.00
68098;DHT22;54886;47.036;15.466;2022-12-13T03:26:59;-5.82;74.51
68098;DHT22;54886;47.036;15.466;2022-12-13T03:29:24;-5.81;74.29
68098;DHT22;54886;47.036;15.466;2022-12-13T03:31:50;-5.83;74.16
68098;DHT22;54886;47.036;15.466;2022-12-13T03:34:16;-5.85;74.43
68098;DHT22;54886;47.036;15.466;2022-12-13T03:36:41;-5.83;74.37
68098;DHT22;54886;47.036;15.466;2022-12-13T03:39:07;-5.89;74.31
68098;DHT22;54886;47.036;15.466;2022-12-13T03:41:32;-5.90;74.45
68098;DHT22;54886;47.036;15.466;2022-12-13T03:44:05;-5.92;74.50
68098;DHT22;54886;47.036;15.466;2022-12-13T03:46:31;-5.93;74.53
68098;DHT22;54886;47.036;15.466;2022-12-13T03:48:57;-5.93;74.56
68098;DHT22;54886;47.036;15.466;2022-12-13T03:51:22;-5.95;74.51
68098;DHT22;54886;47.036;15.466;2022-12-13T03:53:48;-5.93;74.52
68098;DHT22;54886;47.036;15.466;2022-12-13T03:56:14;-5.98;74.77
68098;DHT22;54886;47.036;15.466;2022-12-13T03:58:39;-5.96;74.94
68098;DHT22;54886;47.036;15.466;2022-12-13T04:01:15;-5.92;75.06
68098;DHT22;54886;47.036;15.466;2022-12-13T04:03:43;-5.95;74.71
68098;DHT22;54886;47.036;15.466;2022-12-13T04:06:09;-6.02;74.50
68098;DHT22;54886;47.036;15.466;2022-12-13T04:08:35;-6.00;74.51
68098;DHT22;54886;47.036;15.466;2022-12-13T04:11:01;-5.99;74.56
68098;DHT22;54886;47.036;15.466;2022-12-13T04:13:50;-6.06;74.61
68098;DHT22;54886;47.036;15.466;2022-12-13T04:16:15;-6.06;74.37
68098;DHT22;54886;47.036;15.466;2022-12-13T04:18:41;-6.10;74.70
68098;DHT22;54886;47.036;15.466;2022-12-13T04:21:06;-6.10;74.62
68098;DHT22;54886;47.036;15.466;2022-12-13T04:23:32;-6.10;74.82
68098;DHT22;54886;47.036;15.466;2022-12-13T04:25:59;-6.09;74.69
68098;DHT22;54886;47.036;15.466;2022-12-13T04:28:25;-6.11;74.88
68098;DHT22;54886;47.036;15.466;2022-12-13T04:30:50;-6.10;75.05
68098;DHT22;54886;47.036;15.466;2022-12-13T04:33:17;-6.11;74.98
68098;DHT22;54886;47.036;15.466;2022-12-13T04:35:45;-6.14;74.91
68098;DHT22;54886;47.036;15.466;2022-12-13T04:38:11;-6.18;74.96
68098;DHT22;54886;47.036;15.466;2022-12-13T04:40:36;-6.23;74.74
68098;DHT22;54886;47.036;15.466;2022-12-13T04:43:01;-6.20;74.70
68098;DHT22;54886;47.036;15.466;2022-12-13T04:45:27;-6.24;75.17
68098;DHT22;54886;47.036;15.466;2022-12-13T04:47:52;-6.24;75.05
68098;DHT22;54886;47.036;15.466;2022-12-13T04:50:18;-6.24;74.90
68098;DHT22;54886;47.036;15.466;2022-12-13T04:52:43;-6.27;74.73
68098;DHT22;54886;47.036;15.466;2022-12-13T04:55:09;-6.31;75.06
68098;DHT22;54886;47.036;15.466;2022-12-13T04:57:35;-6.28;74.91
68098;DHT22;54886;47.036;15.466;2022-12-13T05:00:00;-6.35;74.71
68098;DHT22;54886;47.036;15.466;2022-12-13T05:02:26;-6.31;74.83
68098;DHT22;54886;47.036;15.466;2022-12-13T05:04:52;-6.34;74.96
68098;DHT22;54886;47.036;15.466;2022-12-13T05:07:17;-6.37;74.88
68098;DHT22;54886;47.036;15.466;2022-12-13T05:09:43;-6.37;74.82
68098;DHT22;54886;47.036;15.466;2022-12-13T05:12:08;-6.40;75.02
68098;DHT22;54886;47.036;15.466;2022-12-13T05:14:34;-6.40;75.05
68098;DHT22;54886;47.036;15.466;2022-12-13T05:17:00;-6.42;74.91
68098;DHT22;54886;47.036;15.466;2022-12-13T05:19:25;-6.40;74.55
68098;DHT22;54886;47.036;15.466;2022-12-13T05:21:50;-6.41;74.99
68098;DHT22;54886;47.036;15.466;2022-12-13T05:24:16;-6.41;74.67
68098;DHT22;54886;47.036;15.466;2022-12-13T05:26:41;-6.41;74.69
68098;DHT22;54886;47.036;15.466;2022-12-13T05:29:08;-6.42;74.79
68098;DHT22;54886;47.036;15.466;2022-12-13T05:31:33;-6.44;74.68
68098;DHT22;54886;47.036;15.466;2022-12-13T05:33:59;-6.46;74.73
68098;DHT22;54886;47.036;15.466;2022-12-13T05:36:24;-6.46;74.77
68098;DHT22;54886;47.036;15.466;2022-12-13T05:38:51;-6.49;74.96
68098;DHT22;54886;47.036;15.466;2022-12-13T05:41:18;-6.48;74.95
68098;DHT22;54886;47.036;15.466;2022-12-13T05:43:44;-6.55;74.99
68098;DHT22;54886;47.036;15.466;2022-12-13T05:46:13;-6.49;74.96
68098;DHT22;54886;47.036;15.466;2022-12-13T05:48:38;-6.52;75.30
68098;DHT22;54886;47.036;15.466;2022-12-13T05:51:04;-6.52;74.87
68098;DHT22;54886;47.036;15.466;2022-12-13T05:53:29;-6.54;75.06
68098;DHT22;54886;47.036;15.466;2022-12-13T05:55:58;-6.58;75.21
68098;DHT22;54886;47.036;15.466;2022-12-13T05:58:24;-6.57;75.19
68098;DHT22;54886;47.036;15.466;2022-12-13T06:00:49;-6.60;75.37
68098;DHT22;54886;47.036;15.466;2022-12-13T06:03:14;-6.62;75.72
68098;DHT22;54886;47.036;15.466;2022-12-13T06:05:40;-6.64;75.55
68098;DHT22;54886;47.036;15.466;2022-12-13T06:08:08;-6.64;75.33
68098;DHT22;54886;47.036;15.466;2022-12-13T06:10:33;-6.64;75.02
68098;DHT22;54886;47.036;15.466;2022-12-13T06:12:59;-6.65;75.25
68098;DHT22;54886;47.036;15.466;2022-12-13T06:15:24;-6.65;75.01
68098;DHT22;54886;47.036;15.466;2022-12-13T06:17:50;-6.68;75.15
68098;DHT22;54886;47.036;15.466;2022-12-13T06:20:15;-6.69;75.49
68098;DHT22;54886;47.036;15.466;2022-12-13T06:22:40;-6.69;75.64
68098;DHT22;54886;47.036;15.466;2022-12-13T06:25:06;-6.67;75.56
68098;DHT22;54886;47.036;15.466;2022-12-13T06:27:32;-6.69;75.77
68098;DHT22;54886;47.036;15.466;2022-12-13T06:29:57;-6.69;75.87
68098;DHT22;54886;47.036;15.466;2022-12-13T06:32:22;-6.69;75.54
68098;DHT22;54886;47.036;15.466;2022-12-13T06:34:48;-6.68;75.35
68098;DHT22;54886;47.036;15.466;2022-12-13T06:37:13;-6.68;75.22
68098;DHT22;54886;47.036;15.466;2022-12-13T06:39:39;-6.68;75.24
68098;DHT22;54886;47.036;15.466;2022-12-13T06:42:06;-6.69;75.37
68098;DHT22;54886;47.036;15.466;2022-12-13T06:44:32;-6.68;75.32
68098;DHT22;54886;47.036;15.466;2022-12-13T06:47:01;-6.68;75.57
68098;DHT22;54886;47.036;15.466;2022-12-13T06:49:27;-6.68;75.85
68098;DHT22;54886;47.036;15.466;2022-12-13T06:51:52;-6.65;75.51
68098;DHT22;54886;47.036;15.466;2022-12-13T06:54:18;-6.69;75.33
68098;DHT22;54886;47.036;15.466;2022-12-13T06:56:44;-6.71;75.11
68098;DHT22;54886;47.036;15.466;2022-12-13T06:59:09;-6.73;75.45
68098;DHT22;54886;47.036;15.466;2022-12-13T07:01:35;-6.75;75.84
68098;DHT22;54886;47.036;15.466;2022-12-13T07:04:00;-6.71;75.62
68098;DHT22;54886;47.036;15.466;2022-12-13T07:06:26;-6.71;75.61
68098;DHT22;54886;47.036;15.466;2022-12-13T07:08:56;-6.69;75.50
68098;DHT22;54886;47.036;15.466;2022-12-13T07:11:24;-6.67;75.93
68098;DHT22;54886;47.036;15.466;2022-12-13T07:13:51;-6.68;76.29
68098;DHT22;54886;47.036;15.466;2022-12-13T07:16:17;-6.65;75.75
68098;DHT22;54886;47.036;15.466;2022-12-13T07:18:43;-6.62;75.62
68098;DHT22;54886;47.036;15.466;2022-12-13T07:21:10;-6.61;75.40
68098;DHT22;54886;47.036;15.466;2022-12-13T07:23:37;-6.61;75.59
68098;DHT22;54886;47.036;15.466;2022-12-13T07:26:03;-6.61;75.86
68098;DHT22;54886;47.036;15.466;2022-12-13T07:28:36;-6.61;76.07
68098;DHT22;54886;47.036;15.466;2022-12-13T07:31:04;-6.60;75.73
68098;DHT22;54886;47.036;15.466;2022-12-13T07:33:30;-6.54;76.49
68098;DHT22;54886;47.036;15.466;2022-12-13T07:36:20;-6.55;76.66
68098;DHT22;54886;47.036;15.466;2022-12-13T07:38:54;-6.54;76.44
68098;DHT22;54886;47.036;15.466;2022-12-13T07:41:21;-6.49;76.10
68098;DHT22;54886;47.036;15.466;2022-12-13T07:43:46;-6.46;77.04
68098;DHT22;54886;47.036;15.466;2022-12-13T07:46:12;-6.45;77.36
68098;DHT22;54886;47.036;15.466;2022-12-13T07:48:37;-6.42;77.76
68098;DHT22;54886;47.036;15.466;2022-12-13T07:51:06;-6.41;76.60
68098;DHT22;54886;47.036;15.466;2022-12-13T07:53:33;-6.38;78.83
68098;DHT22;54886;47.036;15.466;2022-12-13T07:56:08;-6.35;77.10
68098;DHT22;54886;47.036;15.466;2022-12-13T07:58:34;-6.35;76.70
68098;DHT22;54886;47.036;15.466;2022-12-13T08:01:03;-6.30;76.68
68098;DHT22;54886;47.036;15.466;2022-12-13T08:03:29;-6.24;78.03
68098;DHT22;54886;47.036;15.466;2022-12-13T08:06:00;-6.17;78.58
68098;DHT22;54886;47.036;15.466;2022-12-13T08:08:25;-6.13;78.58
68098;DHT22;54886;47.036;15.466;2022-12-13T08:10:51;-6.06;78.52
68098;DHT22;54886;47.036;15.466;2022-12-13T08:13:16;-6.06;77.44
68098;DHT22;54886;47.036;15.466;2022-12-13T08:15:41;-5.99;77.85
68098;DHT22;54886;47.036;15.466;2022-12-13T08:18:07;-5.96;77.51
68098;DHT22;54886;47.036;15.466;2022-12-13T08:20:32;-5.93;76.96
68098;DHT22;54886;47.036;15.466;2022-12-13T08:22:58;-5.90;77.09
68098;DHT22;54886;47.036;15.466;2022-12-13T08:25:24;-5.88;78.24
68098;DHT22;54886;47.036;15.466;2022-12-13T08:27:49;-5.81;77.82
68098;DHT22;54886;47.036;15.466;2022-12-13T08:30:15;-5.77;77.96
68098;DHT22;54886;47.036;15.466;2022-12-13T08:32:40;-5.74;78.43
68098;DHT22;54886;47.036;15.466;2022-12-13T08:35:06;-5.71;78.22
68098;DHT22;54886;47.036;15.466;2022-12-13T08:37:31;-5.64;77.47
68098;DHT22;54886;47.036;15.466;2022-12-13T08:39:57;-5.62;77.36
68098;DHT22;54886;47.036;15.466;2022-12-13T08:42:22;-5.55;76.83
68098;DHT22;54886;47.036;15.466;2022-12-13T08:44:50;-5.54;76.82
68098;DHT22;54886;47.036;15.466;2022-12-13T08:47:21;-5.50;77.34
68098;DHT22;54886;47.036;15.466;2022-12-13T08:49:46;-5.47;76.97
68098;DHT22;54886;47.036;15.466;2022-12-13T08:52:12;-5.41;77.77
68098;DHT22;54886;47.036;15.466;2022-12-13T08:54:37;-5.35;78.22
68098;DHT22;54886;47.036;15.466;2022-12-13T08:57:02;-5.34;78.04
68098;DHT22;54886;47.036;15.466;2022-12-13T08:59:28;-5.28;77.02
68098;DHT22;54886;47.036;15.466;2022-12-13T09:01:54;-5.24;76.91
68098;DHT22;54886;47.036;15.466;2022-12-13T09:04:19;-5.20;76.99
68098;DHT22;54886;47.036;15.466;2022-12-13T09:06:45;-5.15;76.69
68098;DHT22;54886;47.036;15.466;2022-12-13T09:09:10;-5.12;76.38
68098;DHT22;54886;47.036;15.466;2022-12-13T09:11:38;-5.10;76.19
68098;DHT22;54886;47.036;15.466;2022-12-13T09:14:03;-5.06;76.26
68098;DHT22;54886;47.036;15.466;2022-12-13T09:16:29;-5.02;76.29
68098;DHT22;54886;47.036;15.466;2022-12-13T09:18:54;-5.00;75.74
68098;DHT22;54886;47.036;15.466;2022-12-13T09:21:21;-4.95;76.26
68098;DHT22;54886;47.036;15.466;2022-12-13T09:23:46;-4.88;76.30
68098;DHT22;54886;47.036;15.466;2022-12-13T09:26:14;-4.81;76.42
68098;DHT22;54886;47.036;15.466;2022-12-13T09:28:41;-4.79;76.08
68098;DHT22;54886;47.036;15.466;2022-12-13T09:31:14;-4.75;75.73
68098;DHT22;54886;47.036;15.466;2022-12-13T09:33:40;-4.69;75.94
68098;DHT22;54886;47.036;15.466;2022-12-13T09:36:07;-4.65;76.82
68098;DHT22;54886;47.036;15.466;2022-12-13T09:38:34;-4.61;76.58
68098;DHT22;54886;47.036;15.466;2022-12-13T09:43:36;-4.53;75.79
68098;DHT22;54886;47.036;15.466;2022-12-13T09:46:06;-4.51;75.66
68098;DHT22;54886;47.036;15.466;2022-12-13T09:48:32;-4.47;75.36
68098;DHT22;54886;47.036;15.466;2022-12-13T09:50:58;-4.44;74.87
68098;DHT22;54886;47.036;15.466;2022-12-13T09:53:23;-4.46;74.91
68098;DHT22;54886;47.036;15.466;2022-12-13T09:55:50;-4.37;74.76
68098;DHT22;54886;47.036;15.466;2022-12-13T09:58:20;-4.34;74.55
68098;DHT22;54886;47.036;15.466;2022-12-13T10:00:50;-4.26;74.38
68098;DHT22;54886;47.036;15.466;2022-12-13T10:03:18;-4.23;74.28
68098;DHT22;54886;47.036;15.466;2022-12-13T10:05:54;-4.19;74.38
68098;DHT22;54886;47.036;15.466;2022-12-13T10:08:23;-4.15;73.39
68098;DHT22;54886;47.036;15.466;2022-12-13T10:10:51;-4.10;73.78
68098;DHT22;54886;47.036;15.466;2022-12-13T10:13:40;-4.06;72.20
68098;DHT22;54886;47.036;15.466;2022-12-13T10:18:40;-4.01;70.10
68098;DHT22;54886;47.036;15.466;2022-12-13T10:21:26;-3.96;69.70
68098;DHT22;54886;47.036;15.466;2022-12-13T10:23:52;-3.92;69.87
68098;DHT22;54886;47.036;15.466;2022-12-13T10:26:17;-3.87;69.79
68098;DHT22;54886;47.036;15.466;2022-12-13T10:28:42;-3.84;69.71
68098;DHT22;54886;47.036;15.466;2022-12-13T10:31:15;-3.74;70.37
68098;DHT22;54886;47.036;15.466;2022-12-13T10:33:50;-3.68;70.86
68098;DHT22;54886;47.036;15.466;2022-12-13T10:36:34;-3.68;71.44
68098;DHT22;54886;47.036;15.466;2022-12-13T10:39:02;-3.66;71.77
68098;DHT22;54886;47.036;15.466;2022-12-13T10:41:37;-3.61;72.34
68098;DHT22;54886;47.036;15.466;2022-12-13T10:44:23;-3.53;72.13
68098;DHT22;54886;47.036;15.466;2022-12-13T10:46:52;-3.51;72.12
68098;DHT22;54886;47.036;15.466;2022-12-13T10:49:26;-3.44;71.69
68098;DHT22;54886;47.036;15.466;2022-12-13T10:51:52;-3.44;71.33
68098;DHT22;54886;47.036;15.466;2022-12-13T10:54:28;-3.38;71.44
68098;DHT22;54886;47.036;15.466;2022-12-13T10:56:55;-3.23;71.86
68098;DHT22;54886;47.036;15.466;2022-12-13T10:59:36;-3.22;70.85
68098;DHT22;54886;47.036;15.466;2022-12-13T11:04:52;-3.08;71.40
68098;DHT22;54886;47.036;15.466;2022-12-13T11:09:51;-3.02;70.42
68098;DHT22;54886;47.036;15.466;2022-12-13T11:12:20;-2.99;70.75
68098;DHT22;54886;47.036;15.466;2022-12-13T11:15:05;-2.95;70.53
68098;DHT22;54886;47.036;15.466;2022-12-13T11:17:37;-2.94;69.88
68098;DHT22;54886;47.036;15.466;2022-12-13T11:20:06;-2.92;70.24
68098;DHT22;54886;47.036;15.466;2022-12-13T11:22:35;-2.88;70.15
68098;DHT22;54886;47.036;15.466;2022-12-13T11:25:06;-2.80;69.96
68098;DHT22;54886;47.036;15.466;2022-12-13T11:27:53;-2.81;69.72
68098;DHT22;54886;47.036;15.466;2022-12-13T11:30:29;-2.78;69.59
68098;DHT22;54886;47.036;15.466;2022-12-13T11:33:13;-2.77;69.14
68098;DHT22;54886;47.036;15.466;2022-12-13T11:35:52;-2.68;68.37
68098;DHT22;54886;47.036;15.466;2022-12-13T11:38:30;-2.66;68.50
68098;DHT22;54886;47.036;15.466;2022-12-13T11:41:40;-2.60;68.74
68098;DHT22;54886;47.036;15.466;2022-12-13T11:43:51;-2.60;68.68
68098;DHT22;54886;47.036;15.466;2022-12-13T11:46:28;-2.50;68.43
68098;DHT22;54886;47.036;15.466;2022-12-13T11:49:02;-2.52;67.97
68098;DHT22;54886;47.036;15.466;2022-12-13T11:54:57;-2.43;68.55
68098;DHT22;54886;47.036;15.466;2022-12-13T11:57:43;-2.43;68.57
68098;DHT22;54886;47.036;15.466;2022-12-13T12:00:39;-2.33;68.04
68098;DHT22;54886;47.036;15.466;2022-12-13T12:05:50;-2.36;68.51
68098;DHT22;54886;47.036;15.466;2022-12-13T12:13:53;-2.25;67.98
68098;DHT22;54886;47.036;15.466;2022-12-13T12:16:30;-2.15;68.05
68098;DHT22;54886;47.036;15.466;2022-12-13T12:18:58;-2.15;68.38
68098;DHT22;54886;47.036;15.466;2022-12-13T12:21:36;-2.09;67.96
68098;DHT22;54886;47.036;15.466;2022-12-13T12:32:45;-2.05;68.47
68098;DHT22;54886;47.036;15.466;2022-12-13T12:35:26;-2.02;68.21
68098;DHT22;54886;47.036;15.466;2022-12-13T12:43:31;-1.87;67.89
68098;DHT22;54886;47.036;15.466;2022-12-13T13:02:27;-1.80;68.26
68098;DHT22;54886;47.036;15.466;2022-12-13T13:05:07;-1.75;68.41
68098;DHT22;54886;47.036;15.466;2022-12-13T13:07:39;-1.73;68.07
68098;DHT22;54886;47.036;15.466;2022-12-13T13:10:07;-1.73;67.75
68098;DHT22;54886;47.036;15.466;2022-12-13T13:12:37;-1.75;68.23
68098;DHT22;54886;47.036;15.466;2022-12-13T13:17:58;-1.71;68.14
68098;DHT22;54886;47.036;15.466;2022-12-13T13:20:25;-1.71;67.82
68098;DHT22;54886;47.036;15.466;2022-12-13T13:22:55;-1.70;67.94
68098;DHT22;54886;47.036;15.466;2022-12-13T13:25:31;-1.70;67.88
68098;DHT22;54886;47.036;15.466;2022-12-13T13:28:23;-1.64;65.99
68098;DHT22;54886;47.036;15.466;2022-12-13T13:31:07;-1.62;66.34
68098;DHT22;54886;47.036;15.466;2022-12-13T13:33:49;-1.63;66.66
68098;DHT22;54886;47.036;15.466;2022-12-13T13:39:16;-1.63;66.40
68098;DHT22;54886;47.036;15.466;2022-12-13T13:47:33;-1.63;66.27
68098;DHT22;54886;47.036;15.466;2022-12-13T13:55:59;-1.66;67.35
68098;DHT22;54886;47.036;15.466;2022-12-13T14:01:37;-1.63;67.12
68098;DHT22;54886;47.036;15.466;2022-12-13T14:28:57;-1.62;68.60
68098;DHT22;54886;47.036;15.466;2022-12-13T14:31:41;-1.63;68.54
68098;DHT22;54886;47.036;15.466;2022-12-13T14:34:18;-1.63;68.00
68098;DHT22;54886;47.036;15.466;2022-12-13T14:36:53;-1.64;68.96
68098;DHT22;54886;47.036;15.466;2022-12-13T14:39:19;-1.66;69.02
68098;DHT22;54886;47.036;15.466;2022-12-13T14:41:53;-1.66;69.22
68098;DHT22;54886;47.036;15.466;2022-12-13T14:44:22;-1.70;68.84
68098;DHT22;54886;47.036;15.466;2022-12-13T14:46:57;-1.68;69.14
68098;DHT22;54886;47.036;15.466;2022-12-13T14:49:26;-1.70;69.12
68098;DHT22;54886;47.036;15.466;2022-12-13T14:51:55;-1.70;69.27
68098;DHT22;54886;47.036;15.466;2022-12-13T14:54:28;-1.71;68.59
68098;DHT22;54886;47.036;15.466;2022-12-13T14:56:59;-1.71;69.45
68098;DHT22;54886;47.036;15.466;2022-12-13T14:59:26;-1.73;68.63
68098;DHT22;54886;47.036;15.466;2022-12-13T15:01:54;-1.74;68.81
68098;DHT22;54886;47.036;15.466;2022-12-13T15:06:47;-1.75;69.61
68098;DHT22;54886;47.036;15.466;2022-12-13T15:09:14;-1.74;69.53
68098;DHT22;54886;47.036;15.466;2022-12-13T15:11:41;-1.75;69.74
68098;DHT22;54886;47.036;15.466;2022-12-13T15:14:13;-1.75;69.74
68098;DHT22;54886;47.036;15.466;2022-12-13T15:16:46;-1.75;70.07
68098;DHT22;54886;47.036;15.466;2022-12-13T15:19:21;-1.74;70.03
68098;DHT22;54886;47.036;15.466;2022-12-13T15:22:01;-1.73;70.30
68098;DHT22;54886;47.036;15.466;2022-12-13T15:24:31;-1.71;70.40
68098;DHT22;54886;47.036;15.466;2022-12-13T15:26:58;-1.73;70.40
68098;DHT22;54886;47.036;15.466;2022-12-13T15:29:27;-1.74;70.56
68098;DHT22;54886;47.036;15.466;2022-12-13T15:31:54;-1.78;70.60
68098;DHT22;54886;47.036;15.466;2022-12-13T15:36:58;-1.77;70.84
68098;DHT22;54886;47.036;15.466;2022-12-13T15:39:24;-1.77;71.09
68098;DHT22;54886;47.036;15.466;2022-12-13T15:41:53;-1.78;71.19
68098;DHT22;54886;47.036;15.466;2022-12-13T15:44:26;-1.81;71.27
68098;DHT22;54886;47.036;15.466;2022-12-13T15:46:57;-1.78;71.36
68098;DHT22;54886;47.036;15.466;2022-12-13T15:52:00;-1.77;71.56
68098;DHT22;54886;47.036;15.466;2022-12-13T15:54:26;-1.78;71.63
68098;DHT22;54886;47.036;15.466;2022-12-13T15:57:02;-1.80;71.72
68098;DHT22;54886;47.036;15.466;2022-12-13T15:59:43;-1.81;71.92
68098;DHT22;54886;47.036;15.466;2022-12-13T16:02:16;-1.80;71.93
68098;DHT22;54886;47.036;15.466;2022-12-13T16:04:42;-1.78;72.04
68098;DHT22;54886;47.036;15.466;2022-12-13T16:09:47;-1.78;72.15
68098;DHT22;54886;47.036;15.466;2022-12-13T16:12:23;-1.80;72.06
68098;DHT22;54886;47.036;15.466;2022-12-13T16:14:50;-1.83;72.25
68098;DHT22;54886;47.036;15.466;2022-12-13T16:17:24;-1.81;72.16
68098;DHT22;54886;47.036;15.466;2022-12-13T16:19:55;-1.84;72.47
68098;DHT22;54886;47.036;15.466;2022-12-13T16:22:22;-1.84;72.58
68098;DHT22;54886;47.036;15.466;2022-12-13T16:24:50;-1.87;72.49
68098;DHT22;54886;47.036;15.466;2022-12-13T16:27:16;-1.87;72.44
68098;DHT22;54886;47.036;15.466;2022-12-13T16:29:42;-1.90;72.59
68098;DHT22;54886;47.036;15.466;2022-12-13T16:32:08;-1.93;73.09
68098;DHT22;54886;47.036;15.466;2022-12-13T16:34:36;-1.93;73.31
68098;DHT22;54886;47.036;15.466;2022-12-13T16:37:02;-1.93;73.32
68098;DHT22;54886;47.036;15.466;2022-12-13T16:39:28;-1.94;73.37
68098;DHT22;54886;47.036;15.466;2022-12-13T16:41:53;-1.94;73.20
68098;DHT22;54886;47.036;15.466;2022-12-13T16:44:22;-1.97;73.39
68098;DHT22;54886;47.036;15.466;2022-12-13T16:46:50;-1.99;73.62
68098;DHT22;54886;47.036;15.466;2022-12-13T16:49:22;-1.99;73.49
68098;DHT22;54886;47.036;15.466;2022-12-13T16:51:48;-1.99;73.37
68098;DHT22;54886;47.036;15.466;2022-12-13T16:54:15;-2.02;73.62
68098;DHT22;54886;47.036;15.466;2022-12-13T16:56:40;-2.02;73.35
68098;DHT22;54886;47.036;15.466;2022-12-13T16:59:13;-2.02;73.44
68098;DHT22;54886;47.036;15.466;2022-12-13T17:01:41;-2.05;73.44
68098;DHT22;54886;47.036;15.466;2022-12-13T17:04:12;-2.09;73.61
68098;DHT22;54886;47.036;15.466;2022-12-13T17:06:39;-2.08;73.81
68098;DHT22;54886;47.036;15.466;2022-12-13T17:09:04;-2.09;73.41
68098;DHT22;54886;47.036;15.466;2022-12-13T17:11:31;-2.09;73.43
68098;DHT22;54886;47.036;15.466;2022-12-13T17:13:57;-2.09;73.53
68098;DHT22;54886;47.036;15.466;2022-12-13T17:16:22;-2.13;73.49
68098;DHT22;54886;47.036;15.466;2022-12-13T17:18:48;-2.16;73.31
68098;DHT22;54886;47.036;15.466;2022-12-13T17:21:14;-2.18;73.63
68098;DHT22;54886;47.036;15.466;2022-12-13T17:23:39;-2.21;73.58
68098;DHT22;54886;47.036;15.466;2022-12-13T17:26:06;-2.23;73.67
68098;DHT22;54886;47.036;15.466;2022-12-13T17:28:32;-2.25;73.64
68098;DHT22;54886;47.036;15.466;2022-12-13T17:31:09;-2.26;73.58
68098;DHT22;54886;47.036;15.466;2022-12-13T17:33:36;-2.29;73.89
68098;DHT22;54886;47.036;15.466;2022-12-13T17:36:05;-2.30;74.07